createdAt,value
2023-02-13T00:00:53.906Z,72.36
2023-02-13T00:01:58.505Z,73.12
2023-02-13T00:03:00.699Z,73.33
2023-02-13T00:04:05.362Z,72.80
2023-02-13T00:05:08.469Z,72.43
2023-02-13T00:06:11.341Z,72.35
2023-02-13T00:07:14.449Z,73.60
2023-02-13T00:08:18.874Z,73.32
2023-02-13T00:09:30.404Z,72.63
2023-02-13T00:10:33.631Z,73.06
2023-02-13T00:11:37.929Z,72.81
2023-02-13T00:12:43.222Z,73.08
2023-02-13T00:13:47.797Z,72.86
2023-02-13T00:14:52.150Z,72.26
2023-02-13T00:15:57.301Z,71.86
2023-02-13T00:17:00.896Z,71.95
2023-02-13T00:18:04.440Z,72.19
2023-02-13T00:19:08.007Z,72.39
2023-02-13T00:20:13.382Z,72.96
2023-02-13T00:21:15.976Z,72.40
2023-02-13T00:22:19.673Z,73.34
2023-02-13T00:23:23.387Z,72.87
2023-02-13T00:24:26.055Z,72.15
2023-02-13T00:25:29.378Z,71.85
2023-02-13T00:26:33.682Z,71.64
2023-02-13T00:27:37.117Z,72.33
2023-02-13T00:28:41.339Z,72.39
2023-02-13T00:29:44.725Z,73.36
2023-02-13T00:30:47.562Z,73.17
2023-02-13T00:31:51.285Z,73.09
2023-02-13T00:32:54.613Z,73.03
2023-02-13T00:33:58.743Z,72.72
2023-02-13T00:35:02.882Z,72.82
2023-02-13T00:36:10.901Z,72.39
2023-02-13T00:37:14.276Z,72.98
2023-02-13T00:38:16.628Z,73.07
2023-02-13T00:39:22.259Z,73.25
2023-02-13T00:40:26.247Z,72.80
2023-02-13T00:41:29.128Z,73.35
2023-02-13T00:42:32.111Z,73.47
2023-02-13T00:43:35.719Z,72.54
2023-02-13T00:44:40.031Z,72.32
2023-02-13T00:45:43.375Z,72.23
2023-02-13T00:46:45.848Z,72.47
2023-02-13T00:47:48.731Z,72.44
2023-02-13T00:48:52.984Z,73.98
2023-02-13T00:49:58.215Z,74.64
2023-02-13T00:51:02.123Z,74.11
2023-02-13T00:52:05.948Z,73.50
2023-02-13T00:53:09.353Z,74.11
2023-02-13T00:54:12.258Z,73.34
2023-02-13T00:55:15.629Z,72.95
2023-02-13T00:56:19.657Z,73.50
2023-02-13T00:57:23.453Z,73.59
2023-02-13T00:58:27.815Z,73.37
2023-02-13T00:59:30.269Z,73.17
2023-02-13T01:00:33.677Z,73.83
2023-02-13T01:01:37.336Z,73.59
2023-02-13T01:02:40.999Z,73.66
2023-02-13T01:03:46.606Z,72.96
2023-02-13T01:04:50.092Z,73.73
2023-02-13T01:05:56.321Z,73.12
2023-02-13T01:07:00.367Z,73.98
2023-02-13T01:08:05.004Z,73.85
2023-02-13T01:09:11.986Z,73.24
2023-02-13T01:10:15.437Z,72.84
2023-02-13T01:11:21.702Z,72.65
2023-02-13T01:12:25.956Z,72.69
2023-02-13T01:13:29.334Z,72.55
2023-02-13T01:14:33.136Z,72.78
2023-02-13T01:15:35.316Z,73.01
2023-02-13T01:16:38.505Z,73.17
2023-02-13T01:17:42.001Z,74.09
2023-02-13T01:18:46.057Z,74.58
2023-02-13T01:19:49.711Z,74.24
2023-02-13T01:20:58.232Z,74.58
2023-02-13T01:22:04.607Z,75.53
2023-02-13T01:23:08.587Z,75.32
2023-02-13T01:24:12.333Z,75.36
2023-02-13T01:25:15.605Z,75.11
2023-02-13T01:26:19.841Z,75.10
2023-02-13T01:27:23.032Z,75.00
2023-02-13T01:28:28.585Z,75.21
2023-02-13T01:29:32.938Z,75.32
2023-02-13T01:30:43.441Z,75.26
2023-02-13T01:31:49.697Z,75.40
2023-02-13T01:32:52.777Z,75.54
2023-02-13T01:33:59.618Z,75.62
2023-02-13T01:35:03.027Z,75.77
2023-02-13T01:36:09.249Z,75.95
2023-02-13T01:37:13.898Z,76.00
2023-02-13T01:38:18.570Z,75.94
2023-02-13T01:39:20.848Z,76.12
2023-02-13T01:40:24.304Z,76.40
2023-02-13T01:41:28.021Z,76.83
2023-02-13T01:42:32.538Z,76.83
2023-02-13T01:43:46.463Z,76.84
2023-02-13T01:44:53.788Z,76.65
2023-02-13T01:45:58.846Z,77.02
2023-02-13T01:47:02.394Z,76.79
2023-02-13T01:48:09.409Z,76.57
2023-02-13T01:49:14.812Z,77.73
2023-02-13T01:50:29.055Z,78.41
2023-02-13T01:51:35.195Z,77.64
2023-02-13T01:52:39.814Z,77.59
2023-02-13T01:53:46.386Z,77.94
2023-02-13T01:54:48.722Z,77.96
2023-02-13T01:55:54.949Z,77.59
2023-02-13T01:57:00.329Z,76.50
2023-02-13T01:58:08.325Z,77.36
2023-02-13T01:59:13.710Z,77.17
2023-02-13T02:00:21.609Z,76.37
2023-02-13T02:01:28.171Z,76.19
2023-02-13T02:02:36.824Z,76.35
2023-02-13T02:03:42.030Z,76.87
2023-02-13T02:04:46.788Z,78.44
2023-02-13T02:05:55.731Z,78.43
2023-02-13T02:07:01.224Z,77.62
2023-02-13T02:08:10.803Z,77.46
2023-02-13T02:09:17.510Z,78.17
2023-02-13T02:10:23.729Z,78.36
2023-02-13T02:11:31.450Z,78.02
2023-02-13T02:12:36.610Z,77.57
2023-02-13T02:13:41.528Z,78.59
2023-02-13T02:14:49.574Z,77.81
2023-02-13T02:15:53.956Z,78.10
2023-02-13T02:16:59.174Z,77.88
2023-02-13T02:18:02.199Z,77.90
2023-02-13T02:19:07.256Z,78.03
2023-02-13T02:20:24.860Z,77.84
2023-02-13T02:21:49.704Z,77.32
2023-02-13T02:23:10.729Z,78.00
2023-02-13T02:24:34.063Z,78.46
2023-02-13T02:25:55.014Z,78.11
2023-02-13T02:27:11.170Z,78.19
2023-02-13T02:28:15.874Z,78.32
2023-02-13T02:29:21.208Z,77.75
2023-02-13T02:30:28.081Z,78.64
2023-02-13T02:31:39.857Z,78.65
2023-02-13T02:32:53.766Z,77.34
2023-02-13T02:34:01.749Z,76.97
2023-02-13T02:35:11.725Z,76.49
2023-02-13T02:36:16.638Z,76.75
2023-02-13T02:37:26.095Z,77.14
2023-02-13T02:38:44.654Z,77.56
2023-02-13T02:39:50.721Z,77.18
2023-02-13T02:41:08.013Z,76.53
2023-02-13T02:42:16.949Z,76.65
2023-02-13T02:43:39.830Z,76.53
2023-02-13T02:44:45.930Z,76.15
2023-02-13T02:45:54.415Z,76.57
2023-02-13T02:47:38.535Z,76.72
2023-02-13T02:49:02.840Z,76.08
2023-02-13T02:50:16.071Z,75.90
2023-02-13T02:51:24.279Z,75.85
2023-02-13T02:52:33.040Z,76.24
2023-02-13T02:53:42.340Z,75.47
2023-02-13T02:55:07.189Z,75.93
2023-02-13T02:56:17.656Z,76.14
2023-02-13T02:57:22.828Z,76.48
2023-02-13T02:58:51.087Z,75.76
2023-02-13T03:00:13.811Z,75.52
2023-02-13T03:01:36.743Z,76.77
2023-02-13T03:02:58.412Z,76.00
2023-02-13T03:04:20.175Z,75.79
2023-02-13T03:05:45.751Z,75.85
2023-02-13T03:06:51.348Z,75.75
2023-02-13T03:07:54.327Z,75.74
2023-02-13T03:09:17.254Z,75.52
2023-02-13T03:10:44.683Z,75.57
2023-02-13T03:12:09.636Z,76.15
2023-02-13T03:13:25.010Z,76.35
2023-02-13T03:14:28.817Z,75.91
2023-02-13T03:15:31.595Z,75.88
2023-02-13T03:16:54.745Z,76.64
2023-02-13T03:18:17.262Z,76.36
2023-02-13T03:19:42.592Z,76.33
2023-02-13T03:21:09.391Z,76.70
2023-02-13T03:22:20.631Z,76.00
2023-02-13T03:23:33.000Z,75.96
2023-02-13T03:24:54.268Z,76.46
2023-02-13T03:26:15.200Z,77.28
2023-02-13T03:27:24.573Z,76.82
2023-02-13T03:28:48.549Z,77.14
2023-02-13T03:30:09.375Z,76.93
2023-02-13T03:31:27.238Z,77.98
2023-02-13T03:32:34.774Z,78.19
2023-02-13T03:33:56.881Z,77.92
2023-02-13T03:35:20.248Z,77.12
2023-02-13T03:36:47.140Z,77.87
2023-02-13T03:37:54.708Z,77.90
2023-02-13T03:38:59.391Z,77.56
2023-02-13T03:40:10.786Z,78.02
2023-02-13T03:41:22.461Z,78.29
2023-02-13T03:42:29.195Z,78.22
2023-02-13T03:43:35.216Z,77.96
2023-02-13T03:44:40.906Z,77.66
2023-02-13T03:45:55.724Z,78.56
2023-02-13T03:47:01.913Z,78.99
2023-02-13T03:48:09.297Z,78.53
2023-02-13T03:49:32.736Z,78.20
2023-02-13T03:50:38.670Z,78.52
2023-02-13T03:51:43.190Z,79.11
2023-02-13T03:53:04.559Z,79.60
2023-02-13T03:54:10.056Z,79.60
2023-02-13T03:55:32.877Z,79.57
2023-02-13T03:56:58.166Z,79.37
2023-02-13T03:58:20.844Z,79.42
2023-02-13T03:59:26.339Z,79.24
2023-02-13T04:00:34.866Z,78.97
2023-02-13T04:01:40.595Z,79.14
2023-02-13T04:02:45.937Z,79.36
2023-02-13T04:03:50.639Z,79.76
2023-02-13T04:04:55.863Z,79.93
2023-02-13T04:06:00.726Z,79.59
2023-02-13T04:07:06.493Z,80.18
2023-02-13T04:08:10.139Z,80.54
2023-02-13T04:09:13.435Z,80.69
2023-02-13T04:10:18.867Z,80.63
2023-02-13T04:11:42.932Z,81.34
2023-02-13T04:13:03.118Z,81.42
2023-02-13T04:14:09.756Z,81.39
2023-02-13T04:15:17.748Z,80.89
2023-02-13T04:16:34.795Z,80.70
2023-02-13T04:17:42.576Z,80.69
2023-02-13T04:18:46.048Z,81.34
2023-02-13T04:19:49.520Z,80.89
2023-02-13T04:20:52.451Z,81.60
2023-02-13T04:21:57.250Z,82.09
2023-02-13T04:23:05.577Z,82.43
2023-02-13T04:24:08.660Z,82.79
2023-02-13T04:25:14.394Z,82.44
2023-02-13T04:26:22.456Z,82.22
2023-02-13T04:27:27.631Z,82.40
2023-02-13T04:28:31.706Z,83.52
2023-02-13T04:29:34.955Z,83.58
2023-02-13T04:30:40.016Z,83.55
2023-02-13T04:31:42.520Z,83.76
2023-02-13T04:32:46.111Z,83.56
2023-02-13T04:33:52.267Z,83.55
2023-02-13T04:34:55.628Z,83.32
2023-02-13T04:35:59.051Z,83.72
2023-02-13T04:37:01.890Z,83.60
2023-02-13T04:38:04.991Z,83.03
2023-02-13T04:39:08.301Z,83.72
2023-02-13T04:40:14.302Z,83.99
2023-02-13T04:41:17.475Z,83.97
2023-02-13T04:42:21.310Z,84.58
2023-02-13T04:43:25.869Z,84.25
2023-02-13T04:44:30.440Z,84.51
2023-02-13T04:45:33.914Z,84.94
2023-02-13T04:46:36.172Z,84.31
2023-02-13T04:47:39.666Z,83.88
2023-02-13T04:48:42.866Z,84.51
2023-02-13T04:49:45.426Z,84.57
2023-02-13T04:50:48.712Z,84.68
2023-02-13T04:51:51.905Z,85.01
2023-02-13T04:53:01.408Z,84.99
2023-02-13T04:54:06.733Z,84.69
2023-02-13T04:55:11.099Z,84.24
2023-02-13T04:56:14.223Z,84.04
2023-02-13T04:57:17.054Z,83.80
2023-02-13T04:58:22.426Z,83.31
2023-02-13T04:59:25.437Z,83.38
2023-02-13T05:00:30.928Z,83.51
2023-02-13T05:01:33.210Z,84.24
2023-02-13T05:02:37.005Z,84.00
2023-02-13T05:03:41.141Z,83.42
2023-02-13T05:04:44.791Z,83.44
2023-02-13T05:05:47.913Z,82.94
2023-02-13T05:06:51.328Z,83.04
2023-02-13T05:07:55.144Z,83.07
2023-02-13T05:08:58.886Z,83.05
2023-02-13T05:10:03.350Z,83.31
2023-02-13T05:11:07.125Z,82.51
2023-02-13T05:12:11.673Z,82.42
2023-02-13T05:13:17.986Z,82.32
2023-02-13T05:14:22.638Z,81.59
2023-02-13T05:15:28.758Z,81.57
2023-02-13T05:16:31.748Z,81.44
2023-02-13T05:17:34.985Z,82.29
2023-02-13T05:18:39.376Z,82.23
2023-02-13T05:19:41.732Z,82.32
2023-02-13T05:20:44.516Z,82.52
2023-02-13T05:22:06.392Z,82.69
2023-02-13T05:23:23.580Z,82.08
2023-02-13T05:24:26.555Z,81.94
2023-02-13T05:25:29.974Z,81.13
2023-02-13T05:26:32.317Z,81.11
2023-02-13T05:27:36.147Z,81.19
2023-02-13T05:28:58.975Z,81.14
2023-02-13T05:30:02.192Z,81.07
2023-02-13T05:31:05.847Z,81.21
2023-02-13T05:32:08.950Z,80.72
2023-02-13T05:33:13.648Z,80.93
2023-02-13T05:34:18.837Z,80.50
2023-02-13T05:35:23.864Z,80.30
2023-02-13T05:36:27.376Z,80.55
2023-02-13T05:37:30.590Z,79.89
2023-02-13T05:38:34.490Z,79.42
2023-02-13T05:39:37.892Z,79.68
2023-02-13T05:40:40.550Z,79.69
2023-02-13T05:41:45.544Z,79.87
2023-02-13T05:42:49.262Z,79.51
2023-02-13T05:43:53.898Z,79.52
2023-02-13T05:44:57.193Z,79.49
2023-02-13T05:46:04.594Z,79.81
2023-02-13T05:47:08.067Z,79.69
2023-02-13T05:49:15.288Z,79.13
2023-02-13T05:50:18.886Z,79.10
2023-02-13T05:51:22.197Z,79.78
2023-02-13T05:52:24.539Z,78.92
2023-02-13T05:53:27.425Z,78.60
2023-02-13T05:54:30.827Z,78.55
2023-02-13T05:55:32.964Z,78.43
2023-02-13T05:56:36.486Z,78.39
2023-02-13T05:57:39.981Z,78.64
2023-02-13T05:58:43.695Z,78.78
2023-02-13T05:59:48.745Z,78.71
2023-02-13T06:00:53.211Z,78.74
2023-02-13T06:01:58.868Z,78.52
2023-02-13T06:03:02.085Z,77.67
2023-02-13T06:04:05.670Z,77.15
2023-02-13T06:05:09.025Z,78.44
2023-02-13T06:06:11.454Z,77.99
2023-02-13T06:07:14.977Z,77.71
2023-02-13T06:08:19.004Z,78.52
2023-02-13T06:09:22.817Z,78.55
2023-02-13T06:10:27.469Z,78.99
2023-02-13T06:11:30.724Z,78.39
2023-02-13T06:12:37.288Z,78.23
2023-02-13T06:13:41.743Z,79.49
2023-02-13T06:14:45.144Z,79.84
2023-02-13T06:15:47.740Z,79.61
2023-02-13T06:16:50.486Z,79.73
2023-02-13T06:17:53.533Z,79.60
2023-02-13T06:18:57.107Z,79.68
2023-02-13T06:20:01.113Z,79.07
2023-02-13T06:21:04.344Z,79.58
2023-02-13T06:22:07.572Z,79.14
2023-02-13T06:23:10.863Z,80.53
2023-02-13T06:24:13.660Z,79.81
2023-02-13T06:25:16.215Z,79.67
2023-02-13T06:26:19.579Z,78.94
2023-02-13T06:27:23.716Z,78.21
2023-02-13T06:28:27.878Z,78.23
2023-02-13T06:29:33.901Z,77.77
2023-02-13T06:30:36.515Z,77.47
2023-02-13T06:31:39.967Z,77.27
2023-02-13T06:32:43.569Z,76.55
2023-02-13T06:33:46.980Z,76.79
2023-02-13T06:34:50.123Z,76.50
2023-02-13T06:35:56.532Z,76.33
2023-02-13T06:36:59.677Z,76.09
2023-02-13T06:38:02.338Z,75.41
2023-02-13T06:39:05.733Z,75.47
2023-02-13T06:40:09.360Z,75.18
2023-02-13T06:41:12.783Z,75.28
2023-02-13T06:42:15.557Z,76.19
2023-02-13T06:43:19.679Z,76.05
2023-02-13T06:44:22.996Z,75.51
2023-02-13T06:45:26.674Z,75.06
2023-02-13T06:46:29.983Z,75.52
2023-02-13T06:47:33.277Z,75.71
2023-02-13T06:48:36.471Z,74.67
2023-02-13T06:49:39.977Z,74.30
2023-02-13T06:50:42.331Z,73.58
2023-02-13T06:51:45.731Z,72.98
2023-02-13T06:52:49.344Z,73.50
2023-02-13T06:53:52.748Z,73.71
2023-02-13T06:54:56.558Z,73.93
2023-02-13T06:56:01.005Z,73.69
2023-02-13T06:57:03.766Z,73.38
2023-02-13T06:58:08.292Z,72.45
2023-02-13T06:59:10.987Z,71.98
2023-02-13T07:00:15.688Z,71.37
2023-02-13T07:01:19.120Z,70.97
2023-02-13T07:02:22.568Z,71.50
2023-02-13T07:03:25.736Z,70.92
2023-02-13T07:04:29.510Z,70.28
2023-02-13T07:05:33.386Z,70.32
2023-02-13T07:06:36.567Z,70.20
2023-02-13T07:07:42.657Z,70.12
2023-02-13T07:08:45.907Z,70.27
2023-02-13T07:09:49.276Z,69.98
2023-02-13T07:10:52.598Z,70.62
2023-02-13T07:11:57.234Z,71.03
2023-02-13T07:13:06.005Z,70.92
2023-02-13T07:15:23.625Z,70.00
2023-02-13T07:16:26.908Z,70.09
2023-02-13T07:17:30.625Z,69.57
2023-02-13T07:18:33.298Z,69.25
2023-02-13T07:19:38.501Z,70.80
2023-02-13T07:20:41.634Z,70.50
2023-02-13T07:21:44.342Z,70.80
2023-02-13T07:22:47.848Z,70.38
2023-02-13T07:23:54.469Z,69.98
2023-02-13T07:24:58.722Z,69.18
2023-02-13T07:26:02.839Z,68.82
2023-02-13T07:27:07.403Z,68.97
2023-02-13T07:28:10.473Z,68.38
2023-02-13T07:29:13.895Z,69.39
2023-02-13T07:30:18.412Z,69.70
2023-02-13T07:31:22.539Z,69.34
2023-02-13T07:32:27.400Z,68.59
2023-02-13T07:33:30.944Z,68.15
2023-02-13T07:34:35.633Z,68.50
2023-02-13T07:35:39.763Z,68.61
2023-02-13T07:36:43.153Z,67.62
2023-02-13T07:37:45.558Z,67.02
2023-02-13T07:38:48.885Z,66.71
2023-02-13T07:39:52.493Z,66.33
2023-02-13T07:40:58.216Z,66.38
2023-02-13T07:42:00.836Z,66.79
2023-02-13T07:43:04.167Z,66.20
2023-02-13T07:44:06.828Z,66.60
2023-02-13T07:45:10.293Z,66.96
2023-02-13T07:46:13.733Z,66.42
2023-02-13T07:47:19.002Z,66.60
2023-02-13T07:48:23.354Z,66.48
2023-02-13T07:49:26.870Z,65.95
2023-02-13T07:50:30.460Z,66.96
2023-02-13T07:51:35.126Z,66.52
2023-02-13T07:52:38.951Z,66.47
2023-02-13T07:53:45.186Z,66.56
2023-02-13T07:54:51.154Z,67.02
2023-02-13T07:55:54.404Z,66.96
2023-02-13T07:56:59.893Z,66.47
2023-02-13T07:58:06.521Z,66.33
2023-02-13T07:59:11.578Z,67.64
2023-02-13T08:00:15.801Z,67.75
2023-02-13T08:01:21.423Z,67.53
2023-02-13T08:02:23.962Z,66.66
2023-02-13T08:03:26.355Z,65.89
2023-02-13T08:04:30.136Z,65.72
2023-02-13T08:05:34.237Z,65.13
2023-02-13T08:06:39.345Z,65.40
2023-02-13T08:07:42.631Z,65.53
2023-02-13T08:08:48.336Z,65.14
2023-02-13T08:10:10.442Z,65.71
2023-02-13T08:11:34.969Z,66.37
2023-02-13T08:12:38.737Z,66.74
2023-02-13T08:13:41.509Z,66.72
2023-02-13T08:14:44.530Z,66.63
2023-02-13T08:15:47.072Z,66.62
2023-02-13T08:16:50.824Z,66.31
2023-02-13T08:17:55.430Z,66.92
2023-02-13T08:18:58.946Z,66.54
2023-02-13T08:20:02.654Z,66.95
2023-02-13T08:21:06.076Z,67.54
2023-02-13T08:22:08.840Z,67.14
2023-02-13T08:23:12.920Z,68.13
2023-02-13T08:24:16.560Z,68.08
2023-02-13T08:25:23.331Z,67.49
2023-02-13T08:26:26.980Z,67.12
2023-02-13T08:27:30.369Z,67.13
2023-02-13T08:28:33.887Z,66.61
2023-02-13T08:29:37.432Z,66.25
2023-02-13T08:30:40.305Z,65.48
2023-02-13T08:31:45.016Z,65.39
2023-02-13T08:32:54.243Z,64.70
2023-02-13T08:33:53.322Z,64.28
2023-02-13T08:34:56.783Z,62.76
2023-02-13T08:36:03.590Z,58.17
2023-02-13T08:37:07.096Z,48.55
2023-02-13T08:38:10.589Z,45.50
2023-02-13T08:39:14.097Z,47.50
2023-02-13T08:40:18.578Z,49.83
2023-02-13T08:41:30.639Z,50.39
2023-02-13T08:42:33.791Z,53.14
2023-02-13T08:43:37.925Z,55.02
2023-02-13T08:44:42.055Z,56.85
2023-02-13T08:45:45.674Z,57.77
2023-02-13T08:46:49.182Z,59.03
2023-02-13T08:47:54.137Z,60.11
2023-02-13T08:49:00.098Z,60.61
2023-02-13T08:50:03.350Z,61.04
2023-02-13T08:51:09.966Z,60.97
2023-02-13T08:52:13.286Z,59.70
2023-02-13T08:53:16.468Z,59.76
2023-02-13T08:54:21.568Z,59.30
2023-02-13T08:55:24.954Z,59.47
2023-02-13T08:56:28.270Z,59.27
2023-02-13T08:57:30.915Z,58.96
2023-02-13T08:58:35.497Z,56.77
2023-02-13T08:59:39.177Z,56.12
2023-02-13T09:00:43.934Z,55.10
2023-02-13T09:01:46.385Z,55.53
2023-02-13T09:02:51.486Z,55.39
2023-02-13T09:03:55.677Z,56.68
2023-02-13T09:05:01.845Z,58.23
2023-02-13T09:06:05.484Z,58.55
2023-02-13T09:07:11.138Z,60.40
2023-02-13T09:08:14.619Z,60.71
2023-02-13T09:09:17.919Z,60.83
2023-02-13T09:10:20.704Z,62.26
2023-02-13T09:11:25.011Z,62.67
2023-02-13T09:12:28.380Z,63.26
2023-02-13T09:13:35.046Z,64.22
2023-02-13T09:14:40.805Z,65.42
2023-02-13T09:15:47.211Z,66.06
2023-02-13T09:16:49.576Z,67.29
2023-02-13T09:17:53.597Z,67.10
2023-02-13T09:18:56.903Z,67.60
2023-02-13T09:20:00.293Z,67.37
2023-02-13T09:21:05.356Z,67.58
2023-02-13T09:22:08.665Z,68.13
2023-02-13T09:23:12.055Z,69.10
2023-02-13T09:24:15.047Z,69.84
2023-02-13T09:25:23.603Z,69.11
2023-02-13T09:26:26.965Z,68.24
2023-02-13T09:27:31.410Z,68.45
2023-02-13T09:28:34.701Z,68.42
2023-02-13T09:29:40.859Z,68.79
2023-02-13T09:30:44.026Z,69.63
2023-02-13T09:31:50.893Z,69.51
2023-02-13T09:32:56.248Z,69.64
2023-02-13T09:33:59.428Z,71.11
2023-02-13T09:35:01.600Z,71.50
2023-02-13T09:36:08.960Z,72.22
2023-02-13T09:37:12.274Z,71.57
2023-02-13T09:39:43.808Z,71.64
2023-02-13T09:40:52.737Z,71.41
2023-02-13T09:41:57.295Z,70.64
2023-02-13T09:43:01.754Z,71.10
2023-02-13T09:44:14.107Z,71.52
2023-02-13T09:45:18.684Z,72.27
2023-02-13T09:46:30.153Z,72.28
2023-02-13T09:47:45.835Z,71.58
2023-02-13T09:48:52.063Z,71.27
2023-02-13T09:49:56.508Z,71.12
2023-02-13T09:51:00.235Z,70.54
2023-02-13T09:52:05.713Z,70.50
2023-02-13T09:53:10.990Z,69.98
2023-02-13T09:54:15.680Z,70.48
2023-02-13T09:55:20.510Z,71.16
2023-02-13T09:56:45.729Z,71.49
2023-02-13T09:58:08.771Z,72.04
2023-02-13T09:59:26.064Z,71.20
2023-02-13T10:00:33.225Z,71.26
2023-02-13T10:01:41.880Z,71.06
2023-02-13T10:03:01.969Z,71.61
2023-02-13T10:04:16.528Z,71.12
2023-02-13T10:05:26.338Z,70.55
2023-02-13T10:06:35.592Z,70.96
2023-02-13T10:07:41.674Z,70.46
2023-02-13T10:08:52.317Z,70.15
2023-02-13T10:09:59.649Z,69.55
2023-02-13T10:11:10.469Z,68.35
2023-02-13T10:12:15.826Z,67.78
2023-02-13T10:13:37.139Z,67.89
2023-02-13T10:14:41.652Z,68.05
2023-02-13T10:16:04.236Z,67.72
2023-02-13T10:17:11.660Z,67.90
2023-02-13T10:18:20.073Z,67.12
2023-02-13T10:19:29.068Z,68.50
2023-02-13T10:20:38.973Z,69.91
2023-02-13T10:21:47.074Z,69.79
2023-02-13T10:22:51.896Z,69.24
2023-02-13T10:23:57.084Z,68.77
2023-02-13T10:25:05.542Z,67.73
2023-02-13T10:26:10.716Z,68.11
2023-02-13T10:27:14.738Z,67.95
2023-02-13T10:28:19.331Z,67.46
2023-02-13T10:29:45.983Z,67.20
2023-02-13T10:30:52.220Z,66.82
2023-02-13T10:31:56.162Z,67.04
2023-02-13T10:33:20.738Z,66.82
2023-02-13T10:34:26.010Z,67.32
2023-02-13T10:35:31.716Z,68.39
2023-02-13T10:36:39.809Z,68.72
2023-02-13T10:37:43.629Z,69.93
2023-02-13T10:38:49.123Z,69.79
2023-02-13T10:39:55.540Z,70.89
2023-02-13T10:41:02.728Z,70.76
2023-02-13T10:42:23.942Z,70.91
2023-02-13T10:43:29.455Z,71.38
2023-02-13T10:44:43.032Z,71.74
2023-02-13T10:46:03.243Z,71.68
2023-02-13T10:47:20.283Z,71.54
2023-02-13T10:48:26.113Z,72.99
2023-02-13T10:49:40.466Z,73.10
2023-02-13T10:50:57.400Z,73.70
2023-02-13T10:52:01.579Z,73.90
2023-02-13T10:53:07.898Z,73.61
2023-02-13T10:54:15.606Z,72.99
2023-02-13T10:55:20.679Z,72.00
2023-02-13T10:56:37.433Z,72.04
2023-02-13T10:57:43.528Z,72.21
2023-02-13T10:58:49.057Z,72.38
2023-02-13T10:59:54.620Z,73.12
2023-02-13T11:00:59.050Z,72.77
2023-02-13T11:02:16.460Z,72.73
2023-02-13T11:03:21.636Z,74.43
2023-02-13T11:04:25.616Z,74.17
2023-02-13T11:05:33.572Z,73.61
2023-02-13T11:06:38.630Z,72.24
2023-02-13T11:07:41.910Z,71.65
2023-02-13T11:08:46.879Z,71.67
2023-02-13T11:09:52.918Z,71.68
2023-02-13T11:10:59.351Z,70.93
2023-02-13T11:12:05.552Z,70.19
2023-02-13T11:14:27.704Z,69.91
2023-02-13T11:15:31.337Z,70.52
2023-02-13T11:16:49.251Z,70.48
2023-02-13T11:17:53.912Z,71.06
2023-02-13T11:18:57.485Z,71.66
2023-02-13T11:20:02.004Z,71.93
2023-02-13T11:21:09.415Z,72.61
2023-02-13T11:22:13.652Z,72.31
2023-02-13T11:23:27.721Z,72.19
2023-02-13T11:24:32.044Z,71.16
2023-02-13T11:25:35.437Z,70.48
2023-02-13T11:26:45.085Z,70.22
2023-02-13T11:27:47.766Z,70.05
2023-02-13T11:28:53.379Z,71.18
2023-02-13T11:29:58.552Z,70.73
2023-02-13T11:31:14.969Z,71.30
2023-02-13T11:32:19.688Z,72.27
2023-02-13T11:33:25.358Z,72.36
2023-02-13T11:34:30.431Z,74.54
2023-02-13T11:35:36.342Z,75.07
2023-02-13T11:36:39.528Z,75.20
2023-02-13T11:37:43.665Z,75.25
2023-02-13T11:38:50.066Z,74.66
2023-02-13T11:39:55.065Z,74.13
2023-02-13T11:41:07.319Z,73.42
2023-02-13T11:42:19.132Z,73.43
2023-02-13T11:43:27.093Z,74.67
2023-02-13T11:44:31.963Z,75.31
2023-02-13T11:45:34.508Z,74.53
2023-02-13T11:46:45.934Z,74.04
2023-02-13T11:47:53.645Z,73.32
2023-02-13T11:48:58.611Z,73.37
2023-02-13T11:50:02.771Z,74.26
2023-02-13T11:51:05.309Z,75.83
2023-02-13T11:52:10.594Z,76.38
2023-02-13T11:53:18.378Z,77.72
2023-02-13T11:54:38.940Z,78.77
2023-02-13T11:55:46.004Z,78.03
2023-02-13T11:57:04.108Z,78.56
2023-02-13T11:58:00.703Z,78.97
2023-02-13T11:59:05.002Z,79.66
2023-02-13T12:00:29.022Z,79.89
2023-02-13T12:01:32.945Z,79.85
2023-02-13T12:02:47.715Z,80.48
2023-02-13T12:04:08.681Z,81.76
2023-02-13T12:05:17.095Z,82.54
2023-02-13T12:06:22.762Z,82.05
2023-02-13T12:07:26.610Z,81.89
2023-02-13T12:08:30.856Z,82.49
2023-02-13T12:09:35.491Z,82.40
2023-02-13T12:10:40.858Z,82.10
2023-02-13T12:11:48.386Z,81.48
2023-02-13T12:12:55.406Z,81.21
2023-02-13T12:14:01.736Z,80.87
2023-02-13T12:15:06.491Z,81.31
2023-02-13T12:16:15.630Z,81.50
2023-02-13T12:17:31.178Z,81.29
2023-02-13T12:18:30.700Z,80.50
2023-02-13T12:19:44.963Z,80.33
2023-02-13T12:20:55.765Z,80.70
2023-02-13T12:22:01.581Z,80.75
2023-02-13T12:23:05.705Z,79.88
2023-02-13T12:24:16.312Z,79.56
2023-02-13T12:25:27.978Z,78.80
2023-02-13T12:26:45.675Z,78.48
2023-02-13T12:27:49.809Z,79.02
2023-02-13T12:28:54.045Z,78.91
2023-02-13T12:30:07.378Z,78.53
2023-02-13T12:31:16.573Z,77.85
2023-02-13T12:32:30.885Z,77.28
2023-02-13T12:33:37.932Z,78.09
2023-02-13T12:34:44.271Z,78.64
2023-02-13T12:35:55.398Z,79.20
2023-02-13T12:37:07.762Z,79.86
2023-02-13T12:38:25.215Z,80.26
2023-02-13T12:39:30.584Z,80.71
2023-02-13T12:40:47.956Z,80.51
2023-02-13T12:41:54.128Z,80.54
2023-02-13T12:43:05.309Z,80.03
2023-02-13T12:44:11.521Z,80.72
2023-02-13T12:45:21.812Z,80.91
2023-02-13T12:46:27.113Z,80.89
2023-02-13T12:47:32.207Z,81.59
2023-02-13T12:48:46.751Z,82.76
2023-02-13T12:50:07.702Z,82.39
2023-02-13T12:51:14.849Z,81.84
2023-02-13T12:52:34.135Z,81.64
2023-02-13T12:53:47.146Z,81.83
2023-02-13T12:54:55.768Z,82.06
2023-02-13T12:56:01.764Z,82.61
2023-02-13T12:57:09.568Z,83.58
2023-02-13T12:58:20.169Z,84.53
2023-02-13T12:59:33.806Z,84.06
2023-02-13T13:00:39.096Z,84.63
2023-02-13T13:01:53.240Z,84.97
2023-02-13T13:03:16.081Z,84.74
2023-02-13T13:04:36.921Z,83.89
2023-02-13T13:05:47.659Z,83.84
2023-02-13T13:07:01.262Z,84.32
2023-02-13T13:08:12.137Z,85.36
2023-02-13T13:09:19.033Z,85.99
2023-02-13T13:10:26.307Z,85.13
2023-02-13T13:11:39.413Z,85.49
2023-02-13T13:12:53.572Z,86.93
2023-02-13T13:13:59.905Z,88.82
2023-02-13T13:15:08.098Z,88.79
2023-02-13T13:16:22.497Z,88.75
2023-02-13T13:17:46.978Z,88.79
2023-02-13T13:18:52.038Z,87.78
2023-02-13T13:19:58.780Z,87.88
2023-02-13T13:21:12.939Z,88.55
2023-02-13T13:22:18.118Z,88.59
2023-02-13T13:23:23.418Z,88.90
2023-02-13T13:24:30.986Z,89.16
2023-02-13T13:25:45.562Z,88.58
2023-02-13T13:26:53.548Z,87.39
2023-02-13T13:27:58.871Z,86.67
2023-02-13T13:29:03.064Z,87.99
2023-02-13T13:30:28.900Z,87.98
2023-02-13T13:31:33.535Z,89.01
2023-02-13T13:32:37.406Z,87.10
2023-02-13T13:33:43.441Z,86.04
2023-02-13T13:34:49.311Z,85.80
2023-02-13T13:36:04.526Z,86.66
2023-02-13T13:37:10.799Z,86.88
2023-02-13T13:38:19.150Z,87.44
2023-02-13T13:39:25.748Z,87.14
2023-02-13T13:40:37.321Z,86.58
2023-02-13T13:41:47.223Z,86.21
2023-02-13T13:43:08.789Z,87.09
2023-02-13T13:44:13.969Z,87.26
2023-02-13T13:45:37.222Z,88.93
2023-02-13T13:46:41.235Z,90.77
2023-02-13T13:47:57.086Z,91.84
2023-02-13T13:49:07.462Z,91.56
2023-02-13T13:50:15.920Z,91.92
2023-02-13T13:51:22.323Z,91.55
2023-02-13T13:52:29.305Z,91.40
2023-02-13T13:53:32.482Z,92.02
2023-02-13T13:54:38.349Z,92.92
2023-02-13T13:55:51.977Z,92.98
2023-02-13T13:56:59.376Z,92.43
2023-02-13T13:58:02.880Z,94.09
2023-02-13T13:59:08.371Z,95.00
2023-02-13T14:00:14.644Z,96.00
2023-02-13T14:01:19.818Z,95.80
2023-02-13T14:02:24.256Z,96.01
2023-02-13T14:03:32.351Z,96.46
2023-02-13T14:04:41.796Z,95.42
2023-02-13T14:05:59.155Z,94.40
2023-02-13T14:07:05.597Z,95.64
2023-02-13T14:08:26.548Z,95.56
2023-02-13T14:09:33.079Z,95.79
2023-02-13T14:10:38.557Z,96.20
2023-02-13T14:11:45.841Z,95.37
2023-02-13T14:12:51.332Z,95.90
2023-02-13T14:13:55.040Z,96.95
2023-02-13T14:14:59.584Z,97.89
2023-02-13T14:16:03.992Z,98.47
2023-02-13T14:17:09.298Z,98.91
2023-02-13T14:18:15.337Z,98.83
2023-02-13T14:19:23.537Z,98.92
2023-02-13T14:20:31.112Z,98.62
2023-02-13T14:21:35.358Z,98.93
2023-02-13T14:22:42.710Z,100.00
2023-02-13T14:23:54.919Z,100.00
2023-02-13T14:25:00.578Z,100.00
2023-02-13T14:26:13.611Z,100.00
2023-02-13T14:27:24.511Z,100.00
2023-02-13T14:28:30.460Z,100.00
2023-02-13T14:29:35.526Z,100.00